Punta Gorda, FL

8:38 AM EDT on March 27, 2015 (GMT -0400)
Charlotte County | | Change Station
CLOSE
Current Station
Airport
Location: Punta Gorda,
Elevation: 26 ft
Nearby Weather Stations
Active Advisory: Beach Hazard Statement Active Notice: Public Information Statement

Elev 26 ft 26.92 °N, 81.99 °W | Updated 45 minutes ago

Partly Cloudy
Partly Cloudy
70 °F
Feels Like 70 °F
N
8
Wind Variable Wind from SSW

Today
High -- | Low -- °F
--% Chance of Precip.
Yesterday
High -- | Low -- °F
Precip. -- in
7:24 AM 7:42 PM
First Quarter, 52% visible
Pressure 29.90 in
Visibility 10.0 miles
Clouds Few 12000 ft
Dew Point 68 °F
Humidity 93%
Rainfall 0.26 in
Snow Depth Not available.
UV 0 out of 12
Pollen 5.00 out of 12
Air Quality Not available.
Flu Activity Not available.
METAR KPGD 271153Z 21007KT 10SM FEW120 21/20 A2989 RMK AO2 SLP123 60026 70026 T02110200 10239 20200 55006

More Conditions Fewer Conditions

Pressure 29.90 in
Visibility 10.0 miles
Clouds Few 12000 ft
Dew Point 68 °F
Humidity 93%
Rainfall 0.26 in
Snow Depth Not available.
UV 0 out of 12
Pollen 5.00 out of 12
Air Quality Not available.
Flu Activity Not available.
METAR KPGD 271153Z 21007KT 10SM FEW120 21/20 A2989 RMK AO2 SLP123 60026 70026 T02110200 10239 20200 55006

More Conditions Fewer Conditions

10-Day Weather Forecast

Almanac

Astronomy

Mar. 27, 2015 Rise Set
Actual Time
Civil Twilight
Nautical Twilight
Astronomical Twilight
Moon
Length of Visible Light
Length of Day
Tomorrow will be .
, % of the Moon is Illuminated

Today's Extremes

State Highs State Lows

Community

WunderPhotos

Upload Photos

1,808,721 photos uploaded!

WunderBlogs® & News

Nearby

Air Quality

  Air Quality AQ Index Pollutant
Not available.

Snow Depth

Station Depth Elevation

Earthquake Activity

City Distance Mag. Time & Date
Minimum magnitude displayed is 2.5.

Coastal Water Temperatures

Place Temperature

Stations

Nearby Weather Stations

Station Location Temp. Windchill Dew Point Humidity Wind Precip. Elev Updated Type
                   
Beach Hazard Statement
Statement as of 5:14 AM EDT on March 27, 2015

... Beach hazards statement in effect from noon EDT today through
this evening...

The National Weather Service in Tampa Bay Ruskin has issued a
beach hazards statement for a moderate risk of rip currents which
is in effect from noon EDT today through this evening.

* Hazards... moderate risk of rip currents.

* Timing... from noon through this evening.

* Location... area beaches from Pinellas to Lee counties.

Precautionary/preparedness actions...

A moderate risk of rip currents means wind and or wave conditions
support stronger or more frequent rip currents. Always have a
flotation device with you in the water.



Http://www.Weather.Gov/Tampa